Niles, Illinois
Current Conditions -  °F | °C
As of 11:51 AM on Saturday 20 Dec 2014 (Local Time) from KORD Reporting Station
Overcast Overcast  
Wind Chill: -5°   Ceiling: 4500
Heat Index: -1°   Visibility: 7mi
Dew Point: -5°   Wind: 8mph
Humidity: 72%   Direction: 200°SSW
Pressure: 30.26"   Gusts: NA
Location:  42.02°N, 87.8°W
Report Text: KORD 201751Z 20007KT 7SM BKN045 OVC060 M01/M05 A3026 RMK AO2 SLP253 T10061050 11006 21017 58006
Loading
Personal Weather Stations






























Interactive Weather Map New forecast layout! Learn more

10-Day Weather Forecast

Advertisements
Track Severe Weather on mobile